« Back
NWS Peachtree City, Ga » Text Product » CSG Terminal Aerodrome Forecast


Printer-friendly Version
Current Version              Previous Versions:   1  2  3  4  5  6  7  8  9  

Terminal Aerodrome Forecast

527
FTUS42 KFFC 222300
TAFCSG
TAF
KCSG 222324Z 2300/2324 28006KT P6SM SCT035 BKN070
      TEMPO 2300/2304 -RA BKN035
     FM230600 31007KT P6SM SCT035
     FM231500 34010G15KT P6SM FEW040
     FM232100 31007KT P6SM SKC=



USA.gov is the U.S. government's official web portal to all federal, state and local government web resources and services.